Warning: Javascript must be enabled to use all the features on this page!


Page Loading - Please Wait...

Click to hideNews Bulletins

Peak Streamflow for the Nation

USGS 11519500 SCOTT R NR FORT JONES CA

Siskiyou County, California
Hydrologic Unit Code 18010208
Latitude  41°38'27", Longitude 123°00'50" NAD27
Drainage area 653  square miles
Gage datum 2,623.80 feet above NGVD29
Output formats
Table
Graph
Tab-separated file
peakfq (watstore) format
Reselect output format
Water
Year
Date Gage
Height
(feet)
Stream-
flow
(cfs)
1942 1941-12-17 9.50 5,500
1943 1943-01-22 11.65 8,870
1944 1944-05-07 5.41 1,350
1945 1945-02-14 7.65 3,240
1946 1945-12-29 11.38 8,410
1947 1947-02-12 7.10 2,740
1948 1948-01-08 11.61 8,800
1949 1949-05-13 7.03 2,470
1950 1950-03-19 7.09 2,520
1951 1951-02-05 12.02 10,400
1952 1952-02-02 12.11 10,600
1953 1953-01-19 15.08 16,000
1954 1954-03-10 9.61 5,650
1955 1955-05-21 5.66 1,480
1956 1955-12-22 21.40 38,500
1957 1957-02-26 10.45 7,210
1958 1958-02-25 13.43 14,000
1959 1959-01-12 9.12 5,470
1960 1960-02-08 10.79 8,220
1961 1961-02-11 10.42 7,560
1962 1961-12-20 6.91 2,540
1963 1962-12-03 13.22 13,500
1964 1964-01-20 9.96 5,860
1965 1964-12-22 25.34 54,600
1966 1966-01-06 8.86 4,580
1967 1967-01-29 12.386 6,880
1968 1968-02-23 15.24 12,800
1969 1969-01-21 12.42 6,980
1970 1970-01-24 18.89 20,700
1971 1971-01-18 17.63 16,300
1972 1972-03-03 17.14 14,800
1973 1972-12-22 9.65 2,930
1974 1974-01-16 23.67 36,700
1975 1975-03-19 13.50 8,400
1976 1975-11-15 9.76 3,120
1977 1977-06-10 6.05 290
1978 1977-12-14 15.56 13,300
1979 1979-01-11 10.48 3,940
1980 1980-01-13 15.85 13,100
1981 1981-02-17 10.05 3,450
1982 1981-12-20 20.52 25,500
1983 1983-01-27 14.44 9,460
1984 1983-12-15 11.37 4,700
1985 1984-11-12 10.25 3,420
1986 1986-02-18 17.42 15,800
1987 1987-03-05 10.66 3,920
1988 1987-12-10 11.30 4,610
1989 1989-03-10 12.61 6,430
1990 1990-01-08 11.73 5,170
1991 1991-03-05 8.56 1,830
1992 1992-04-17 9.42 2,600
1993 1993-03-17 13.44 7,430
1994 1994-05-08 7.06 861
1995 1995-02-01 15.73 11,400
1996 1995-12-13 12.61 6,180
1997 1997-01-01 23.47 34,300
1998 1998-03-24 17.28 14,900
1999 1998-11-23 10.91 4,010
2000 2000-01-16 10.57 3,640
2001 2001-03-25 7.48 1,200
2002 2002-01-07 10.26 3,280
2003 2002-12-28 13.97 8,250
2004 2004-02-18 13.50 7,500
2005 2005-05-19 9.89 2,960
2006 2005-12-31 20.41 23,600
2007 2006-12-14 10.41 3,580
2008 2008-05-18 10.15 3,320
2009 2009-05-05 9.95 3,120
2010 2010-06-04 11.48 4,730
2011 2011-03-16 10.47 3,620
2012 2012-03-31 11.81 5,100
2013 2012-12-02 12.46 5,890
2014 2014-03-10 11.19 4,250
2015 2015-02-07 17.23 14,600
2016 2016-03-06 12.78 6,340
2017 2017-02-10 17.90 16,100
2018 2018-04-07 10.75 3,850
2019 2019-04-09 12.61 6,160
2020 2020-01-26 8.41 1,720
2021 2021-01-13 8.27 1,630
?
  Peak Gage-Height Qualification Codes.